createdAt,value
2018-07-23T00:00:00.879Z,91670.98
2018-07-23T00:02:34.748Z,91673.86
2018-07-23T00:05:08.469Z,91671.84
2018-07-23T00:07:42.649Z,91672.67
2018-07-23T00:10:16.573Z,91677.89
2018-07-23T00:12:50.932Z,91671.88
2018-07-23T00:15:24.763Z,91672.02
2018-07-23T00:17:58.602Z,91671.83
2018-07-23T00:20:34.936Z,91666.58
2018-07-23T00:23:09.174Z,91674.53
2018-07-23T00:25:46.281Z,91666.39
2018-07-23T00:28:20.843Z,91670.19
2018-07-23T00:30:54.650Z,91669.20
2018-07-23T00:33:28.573Z,91666.13
2018-07-23T00:36:02.770Z,91656.91
2018-07-23T00:38:36.915Z,91656.95
2018-07-23T00:41:10.706Z,91652.35
2018-07-23T00:43:44.666Z,91651.62
2018-07-23T00:46:18.994Z,91646.51
2018-07-23T00:48:52.863Z,91650.03
2018-07-23T00:51:26.571Z,91655.59
2018-07-23T00:54:00.736Z,91652.70
2018-07-23T00:56:34.522Z,91648.96
2018-07-23T00:59:08.424Z,91651.48
2018-07-23T01:01:42.370Z,91646.53
2018-07-23T01:04:16.171Z,91639.36
2018-07-23T01:06:49.906Z,91636.67
2018-07-23T01:09:24.780Z,91634.56
2018-07-23T01:11:58.752Z,91640.56
2018-07-23T01:14:32.496Z,91628.30
2018-07-23T01:17:06.618Z,91627.59
2018-07-23T01:19:40.537Z,91622.13
2018-07-23T01:22:19.290Z,91607.19
2018-07-23T01:24:54.383Z,91611.70
2018-07-23T01:27:29.477Z,91611.34
2018-07-23T01:30:03.400Z,91623.66
2018-07-23T01:32:37.176Z,91620.88
2018-07-23T01:35:10.947Z,91619.33
2018-07-23T01:37:44.944Z,91620.24
2018-07-23T01:40:19.380Z,91617.89
2018-07-23T01:42:53.461Z,91615.58
2018-07-23T01:45:27.352Z,91608.83
2018-07-23T01:48:01.593Z,91610.15
2018-07-23T01:50:35.661Z,91613.05
2018-07-23T01:53:09.659Z,91609.06
2018-07-23T01:55:43.754Z,91604.40
2018-07-23T01:58:17.665Z,91604.08
2018-07-23T02:00:51.715Z,91605.55
2018-07-23T02:03:25.490Z,91614.12
2018-07-23T02:05:59.425Z,91613.36
2018-07-23T02:08:33.336Z,91611.05
2018-07-23T02:11:07.838Z,91613.64
2018-07-23T02:13:41.698Z,91614.49
2018-07-23T02:16:15.477Z,91606.59
2018-07-23T02:18:49.432Z,91613.70
2018-07-23T02:21:23.263Z,91613.46
2018-07-23T02:23:57.196Z,91615.90
2018-07-23T02:26:31.861Z,91618.52
2018-07-23T02:29:05.842Z,91625.02
2018-07-23T02:31:39.749Z,91625.72
2018-07-23T02:34:13.740Z,91632.64
2018-07-23T02:36:47.776Z,91630.16
2018-07-23T02:39:21.756Z,91625.61
2018-07-23T02:41:56.604Z,91626.56
2018-07-23T02:44:30.620Z,91629.72
2018-07-23T02:47:04.529Z,91627.08
2018-07-23T02:49:39.254Z,91624.55
2018-07-23T02:52:13.169Z,91626.06
2018-07-23T02:54:47.015Z,91626.34
2018-07-23T02:57:21.291Z,91616.13
2018-07-23T02:59:55.181Z,91612.05
2018-07-23T03:02:29.133Z,91608.70
2018-07-23T03:05:03.019Z,91612.47
2018-07-23T03:07:36.976Z,91612.52
2018-07-23T03:10:10.938Z,91604.09
2018-07-23T03:12:45.064Z,91595.67
2018-07-23T03:15:19.024Z,91605.84
2018-07-23T03:17:53.114Z,91599.58
2018-07-23T03:20:26.801Z,91595.06
2018-07-23T03:23:01.019Z,91593.11
2018-07-23T03:25:34.780Z,91599.73
2018-07-23T03:28:09.059Z,91597.55
2018-07-23T03:30:42.971Z,91598.43
2018-07-23T03:33:16.927Z,91596.55
2018-07-23T03:35:50.829Z,91596.64
2018-07-23T03:38:24.913Z,91591.70
2018-07-23T03:40:58.696Z,91592.05
2018-07-23T03:43:32.895Z,91605.72
2018-07-23T03:46:06.833Z,91606.63
2018-07-23T03:48:40.732Z,91604.02
2018-07-23T03:51:16.372Z,91593.59
2018-07-23T03:53:50.332Z,91598.79
2018-07-23T03:56:24.210Z,91601.28
2018-07-23T03:58:58.219Z,91599.93
2018-07-23T04:01:31.995Z,91598.03
2018-07-23T04:04:06.234Z,91601.05
2018-07-23T04:06:39.954Z,91591.09
2018-07-23T04:09:13.700Z,91600.41
2018-07-23T04:11:47.507Z,91602.23
2018-07-23T04:14:21.990Z,91599.28
2018-07-23T04:16:55.801Z,91599.99
2018-07-23T04:19:29.549Z,91603.09
2018-07-23T04:22:03.550Z,91600.64
2018-07-23T04:24:37.450Z,91608.06
2018-07-23T04:27:11.293Z,91601.31
2018-07-23T04:29:45.435Z,91598.95
2018-07-23T04:32:19.237Z,91601.44
2018-07-23T04:34:58.594Z,91599.63
2018-07-23T04:37:32.470Z,91596.91
2018-07-23T04:40:07.525Z,91592.91
2018-07-23T04:42:41.279Z,91591.95
2018-07-23T04:45:15.651Z,91578.19
2018-07-23T04:47:49.453Z,91581.16
2018-07-23T04:50:23.378Z,91582.06
2018-07-23T04:52:57.645Z,91587.45
2018-07-23T04:55:31.600Z,91589.59
2018-07-23T04:58:05.501Z,91585.40
2018-07-23T05:00:39.726Z,91585.40
2018-07-23T05:03:13.637Z,91581.53
2018-07-23T05:05:47.558Z,91585.91
2018-07-23T05:08:21.580Z,91585.47
2018-07-23T05:10:55.410Z,91587.78
2018-07-23T05:13:29.072Z,91574.55
2018-07-23T05:16:04.154Z,91566.83
2018-07-23T05:18:37.913Z,91569.00
2018-07-23T05:21:11.792Z,91554.09
2018-07-23T05:23:45.684Z,91563.31
2018-07-23T05:26:19.660Z,91563.25
2018-07-23T05:28:53.569Z,91551.62
2018-07-23T05:31:27.775Z,91546.47
2018-07-23T05:34:01.750Z,91558.41
2018-07-23T05:36:35.621Z,91562.20
2018-07-23T05:39:10.651Z,91557.66
2018-07-23T05:41:44.489Z,91563.22
2018-07-23T05:44:18.440Z,91567.25
2018-07-23T05:46:52.873Z,91553.84
2018-07-23T05:49:26.683Z,91552.88
2018-07-23T05:52:00.452Z,91548.83
2018-07-23T05:54:34.661Z,91547.18
2018-07-23T05:57:08.477Z,91552.98
2018-07-23T05:59:42.133Z,91543.53
2018-07-23T06:04:56.679Z,91545.44
2018-07-23T06:07:30.533Z,91551.77
2018-07-23T06:10:04.936Z,91554.97
2018-07-23T06:12:38.717Z,91555.03
2018-07-23T06:15:12.755Z,91548.13
2018-07-23T06:17:46.684Z,91561.84
2018-07-23T06:20:20.774Z,91545.81
2018-07-23T06:22:54.675Z,91542.75
2018-07-23T06:25:28.556Z,91535.08
2018-07-23T06:28:02.372Z,91520.72
2018-07-23T06:30:36.156Z,91522.47
2018-07-23T06:33:10.123Z,91518.63
2018-07-23T06:35:44.154Z,91519.09
2018-07-23T06:38:18.206Z,91514.39
2018-07-23T06:40:52.156Z,91504.11
2018-07-23T06:43:25.888Z,91511.94
2018-07-23T06:45:59.752Z,91511.67
2018-07-23T06:48:27.535Z,91508.86
2018-07-23T06:50:55.913Z,91509.78
2018-07-23T06:53:24.087Z,91496.84
2018-07-23T06:55:53.266Z,91498.03
2018-07-23T06:58:21.056Z,91498.25
2018-07-23T07:00:48.859Z,91491.38
2018-07-23T07:03:16.631Z,91484.73
2018-07-23T07:05:44.381Z,91489.94
2018-07-23T07:08:12.269Z,91483.55
2018-07-23T07:10:40.033Z,91477.20
2018-07-23T07:13:07.977Z,91473.30
2018-07-23T07:15:36.449Z,91456.88
2018-07-23T07:18:07.976Z,91454.89
2018-07-23T07:20:35.860Z,91461.05
2018-07-23T07:23:04.178Z,91451.53
2018-07-23T07:25:32.107Z,91457.02
2018-07-23T07:27:59.973Z,91460.06
2018-07-23T07:33:20.294Z,91460.20
2018-07-23T07:35:54.313Z,91466.34
2018-07-23T07:38:22.241Z,91467.75
2018-07-23T07:40:50.200Z,91467.13
2018-07-23T07:43:18.192Z,91469.95
2018-07-23T07:45:46.121Z,91467.00
2018-07-23T07:48:13.997Z,91454.75
2018-07-23T07:50:41.887Z,91465.06
2018-07-23T07:53:10.105Z,91463.70
2018-07-23T07:55:37.973Z,91461.00
2018-07-23T07:58:06.578Z,91452.80
2018-07-23T08:00:34.488Z,91449.36
2018-07-23T08:03:02.431Z,91442.41
2018-07-23T08:05:30.308Z,91441.70
2018-07-23T08:07:58.351Z,91443.13
2018-07-23T08:10:26.235Z,91442.43
2018-07-23T08:12:54.137Z,91442.39
2018-07-23T08:28:10.625Z,91432.77
2018-07-23T08:30:38.511Z,91424.39
2018-07-23T08:33:06.602Z,91417.45
2018-07-23T08:35:34.479Z,91420.32
2018-07-23T08:38:02.386Z,91420.27
2018-07-23T08:40:30.596Z,91427.78
2018-07-23T08:42:58.526Z,91417.38
2018-07-23T08:45:26.489Z,91417.22
2018-07-23T08:47:54.741Z,91422.25
2018-07-23T08:50:22.648Z,91420.20
2018-07-23T08:52:50.682Z,91418.89
2018-07-23T08:55:18.639Z,91410.42
2018-07-23T08:57:46.521Z,91404.81
2018-07-23T09:00:14.772Z,91398.55
2018-07-23T09:02:42.705Z,91395.06
2018-07-23T09:05:10.580Z,91392.38
2018-07-23T09:07:38.441Z,91385.36
2018-07-23T09:10:07.097Z,91372.95
2018-07-23T09:12:34.996Z,91372.27
2018-07-23T09:15:02.970Z,91367.45
2018-07-23T09:17:30.905Z,91369.50
2018-07-23T09:19:58.953Z,91361.75
2018-07-23T09:22:26.849Z,91363.02
2018-07-23T09:24:54.819Z,91356.27
2018-07-23T09:27:22.704Z,91346.18
2018-07-23T09:29:50.653Z,91348.88
2018-07-23T09:32:34.567Z,91349.88
2018-07-23T09:35:02.661Z,91348.31
2018-07-23T09:37:30.527Z,91350.30
2018-07-23T09:39:58.429Z,91341.31
2018-07-23T09:42:26.304Z,91334.50
2018-07-23T09:44:54.191Z,91327.20
2018-07-23T09:47:22.128Z,91323.33
2018-07-23T09:49:50.009Z,91316.05
2018-07-23T18:25:06.039Z,91332.08
2018-07-23T18:27:38.654Z,91334.59
2018-07-23T18:30:12.289Z,91336.70
2018-07-23T18:32:44.929Z,91334.92
2018-07-23T18:35:18.296Z,91332.68
2018-07-23T18:37:47.594Z,91334.08
2018-07-23T18:40:22.332Z,91338.67
2018-07-23T18:42:57.082Z,91344.25
2018-07-23T18:45:38.739Z,91342.34
2018-07-23T18:48:34.893Z,91350.04
2018-07-23T18:51:12.058Z,91345.73
2018-07-23T18:53:53.180Z,91340.03
2018-07-23T18:56:37.035Z,91343.33
2018-07-23T18:59:10.521Z,91341.21
2018-07-23T19:01:45.253Z,91343.16
2018-07-23T19:04:17.407Z,91342.77
2018-07-23T19:06:47.202Z,91338.83
2018-07-23T19:09:16.612Z,91332.59
2018-07-23T19:11:45.392Z,91329.83
2018-07-23T19:14:14.340Z,91327.14
2018-07-23T19:16:42.342Z,91327.95
2018-07-23T19:19:10.282Z,91329.38
2018-07-23T19:21:38.405Z,91332.20
2018-07-23T19:24:06.660Z,91331.86
2018-07-23T19:26:34.536Z,91334.43
2018-07-23T19:29:02.476Z,91334.88
2018-07-23T19:31:30.599Z,91330.73
2018-07-23T19:34:00.454Z,91327.22
2018-07-23T19:36:29.756Z,91328.38
2018-07-23T19:38:57.856Z,91331.80
2018-07-23T19:41:26.397Z,91336.52
2018-07-23T19:43:54.537Z,91330.98
2018-07-23T19:46:22.717Z,91336.52
2018-07-23T19:48:50.522Z,91333.17
2018-07-23T19:51:19.540Z,91325.56
2018-07-23T19:53:47.352Z,91326.77
2018-07-23T19:56:15.336Z,91327.94
2018-07-23T19:58:49.504Z,91318.31
2018-07-23T20:01:23.768Z,91310.86
2018-07-23T20:03:58.346Z,91307.31
2018-07-23T20:06:32.285Z,91300.61
2018-07-23T20:09:08.368Z,91297.02
2018-07-23T20:11:42.227Z,91292.31
2018-07-23T20:14:22.654Z,91295.06
2018-07-23T20:16:57.076Z,91289.69
2018-07-23T20:19:31.137Z,91288.80
2018-07-23T20:22:04.996Z,91284.39
2018-07-23T20:24:39.353Z,91280.87
2018-07-23T20:27:13.228Z,91280.52
2018-07-23T20:29:47.385Z,91276.95
2018-07-23T20:32:21.324Z,91280.38
2018-07-23T20:34:55.884Z,91276.45
2018-07-23T20:37:29.714Z,91273.37
2018-07-23T20:40:03.796Z,91279.20
2018-07-23T20:42:37.609Z,91287.30
2018-07-23T20:45:11.837Z,91293.53
2018-07-23T20:47:45.739Z,91299.36
2018-07-23T20:50:19.713Z,91301.58
2018-07-23T20:52:53.700Z,91303.61
2018-07-23T20:55:27.650Z,91310.48
2018-07-23T20:58:01.525Z,91315.05
2018-07-23T21:08:35.385Z,91328.59
2018-07-23T21:11:09.336Z,91318.94
2018-07-23T21:13:43.266Z,91322.83
2018-07-23T21:16:17.925Z,91316.59
2018-07-23T21:18:51.872Z,91310.01
2018-07-23T21:21:25.725Z,91311.77
2018-07-23T21:23:59.716Z,91305.55
2018-07-23T21:26:33.926Z,91303.67
2018-07-23T21:29:07.907Z,91303.17
2018-07-23T21:31:41.905Z,91309.17
2018-07-23T21:34:15.953Z,91304.09
2018-07-23T21:36:50.088Z,91308.80
2018-07-23T21:39:25.165Z,91308.66
2018-07-23T21:41:59.044Z,91309.94
2018-07-23T21:44:33.014Z,91311.70
2018-07-23T21:47:06.868Z,91307.08
2018-07-23T21:49:40.844Z,91309.69
2018-07-23T21:52:14.664Z,91307.00
2018-07-23T21:54:49.854Z,91310.40
2018-07-23T21:57:23.772Z,91315.56
2018-07-23T21:59:57.713Z,91316.86
2018-07-23T22:02:31.444Z,91307.83
2018-07-23T22:05:06.425Z,91313.95
2018-07-23T22:07:40.345Z,91308.86
2018-07-23T22:10:14.543Z,91300.85
2018-07-23T22:12:48.506Z,91297.75
2018-07-23T22:15:22.300Z,91293.20
2018-07-23T22:17:56.200Z,91297.34
2018-07-23T22:20:30.142Z,91295.93
2018-07-23T22:23:04.179Z,91297.58
2018-07-23T22:25:38.317Z,91294.25
2018-07-23T22:28:12.695Z,91297.19
2018-07-23T22:30:46.692Z,91289.86
2018-07-23T22:33:20.584Z,91296.34
2018-07-23T22:35:54.670Z,91292.27
2018-07-23T22:38:28.460Z,91285.02
2018-07-23T22:41:02.797Z,91274.73
2018-07-23T22:43:36.748Z,91273.34
2018-07-23T22:46:10.688Z,91266.28
2018-07-23T22:48:44.367Z,91274.06
2018-07-23T22:51:18.279Z,91277.83
2018-07-23T22:53:52.201Z,91269.53
2018-07-23T23:01:45.669Z,91274.05
2018-07-23T23:04:19.419Z,91272.94
2018-07-23T23:06:53.358Z,91269.55
2018-07-23T23:09:27.077Z,91260.14
2018-07-23T23:12:01.091Z,91259.53
2018-07-23T23:14:35.036Z,91266.28
2018-07-23T23:17:09.396Z,91268.09
2018-07-23T23:19:43.090Z,91262.33
2018-07-23T23:22:16.936Z,91258.30
2018-07-23T23:24:50.913Z,91263.65
2018-07-23T23:27:24.952Z,91261.01
2018-07-23T23:29:59.190Z,91257.91
2018-07-23T23:32:33.182Z,91252.42
2018-07-23T23:35:07.074Z,91252.13
2018-07-23T23:37:40.986Z,91257.78
2018-07-23T23:40:15.220Z,91255.53
2018-07-23T23:42:48.957Z,91248.90
2018-07-23T23:45:22.789Z,91252.05
2018-07-23T23:47:56.964Z,91248.98
2018-07-23T23:50:30.728Z,91233.51
2018-07-23T23:53:04.491Z,91237.27
2018-07-23T23:55:38.507Z,91238.93
2018-07-23T23:58:12.468Z,91242.72
